sensor_id;sensor_type;location;lat;lon;timestamp;pressure;altitude;pressure_sealevel;temperature
73662;BMP280;61956;52.540;13.382;2023-05-10T00:01:30;86570.28;;;13.44
73662;BMP280;61956;52.540;13.382;2023-05-10T00:04:00;86823.78;;;13.43
73662;BMP280;61956;52.540;13.382;2023-05-10T00:06:28;86675.78;;;13.39
73662;BMP280;61956;52.540;13.382;2023-05-10T00:09:00;86787.28;;;13.39
73662;BMP280;61956;52.540;13.382;2023-05-10T00:11:29;86872.81;;;13.37
73662;BMP280;61956;52.540;13.382;2023-05-10T00:13:59;87264.47;;;13.39
73662;BMP280;61956;52.540;13.382;2023-05-10T00:16:28;86675.53;;;13.33
73662;BMP280;61956;52.540;13.382;2023-05-10T00:18:57;86552.28;;;13.30
73662;BMP280;61956;52.540;13.382;2023-05-10T00:21:26;87007.34;;;13.31
73662;BMP280;61956;52.540;13.382;2023-05-10T00:24:00;86515.81;;;13.26
73662;BMP280;61956;52.540;13.382;2023-05-10T00:26:29;86724.50;;;13.25
73662;BMP280;61956;52.540;13.382;2023-05-10T00:28:59;86413.25;;;13.21
73662;BMP280;61956;52.540;13.382;2023-05-10T00:31:28;86269.31;;;13.18
73662;BMP280;61956;52.540;13.382;2023-05-10T00:33:58;85752.75;;;13.11
73662;BMP280;61956;52.540;13.382;2023-05-10T00:36:27;85626.38;;;13.07
73662;BMP280;61956;52.540;13.382;2023-05-10T00:39:00;85575.13;;;13.04
73662;BMP280;61956;52.540;13.382;2023-05-10T00:41:29;85411.81;;;13.00
73662;BMP280;61956;52.540;13.382;2023-05-10T00:43:59;85737.56;;;12.99
73662;BMP280;61956;52.540;13.382;2023-05-10T00:46:30;85091.84;;;12.93
73662;BMP280;61956;52.540;13.382;2023-05-10T00:49:00;85179.22;;;12.90
73662;BMP280;61956;52.540;13.382;2023-05-10T00:51:30;85028.94;;;12.86
73662;BMP280;61956;52.540;13.382;2023-05-10T00:54:02;85060.63;;;12.84
73662;BMP280;61956;52.540;13.382;2023-05-10T00:56:32;84609.44;;;12.78
73662;BMP280;61956;52.540;13.382;2023-05-10T00:59:02;84528.50;;;12.73
73662;BMP280;61956;52.540;13.382;2023-05-10T01:01:34;84401.03;;;12.71
73662;BMP280;61956;52.540;13.382;2023-05-10T01:04:07;84645.63;;;12.70
73662;BMP280;61956;52.540;13.382;2023-05-10T01:06:37;84610.63;;;12.65
73662;BMP280;61956;52.540;13.382;2023-05-10T01:09:09;83858.88;;;12.57
73662;BMP280;61956;52.540;13.382;2023-05-10T01:11:39;84001.19;;;12.55
73662;BMP280;61956;52.540;13.382;2023-05-10T01:14:09;83861.50;;;12.51
73662;BMP280;61956;52.540;13.382;2023-05-10T01:16:40;83209.13;;;12.43
73662;BMP280;61956;52.540;13.382;2023-05-10T01:19:19;83244.13;;;12.40
73662;BMP280;61956;52.540;13.382;2023-05-10T01:21:58;83302.97;;;12.37
73662;BMP280;61956;52.540;13.382;2023-05-10T01:31:21;82735.75;;;12.22
73662;BMP280;61956;52.540;13.382;2023-05-10T01:34:07;82897.34;;;12.19
73662;BMP280;61956;52.540;13.382;2023-05-10T01:36:45;82787.56;;;12.16
73662;BMP280;61956;52.540;13.382;2023-05-10T01:39:24;82515.69;;;12.11
73662;BMP280;61956;52.540;13.382;2023-05-10T01:42:04;82374.31;;;12.07
73662;BMP280;61956;52.540;13.382;2023-05-10T01:44:41;82077.38;;;12.01
73662;BMP280;61956;52.540;13.382;2023-05-10T01:47:21;81959.31;;;11.98
73662;BMP280;61956;52.540;13.382;2023-05-10T01:50:02;82166.03;;;11.96
73662;BMP280;61956;52.540;13.382;2023-05-10T01:52:37;82333.97;;;11.94
73662;BMP280;61956;52.540;13.382;2023-05-10T01:55:14;82122.31;;;11.90
73662;BMP280;61956;52.540;13.382;2023-05-10T01:57:46;82134.63;;;11.87
73662;BMP280;61956;52.540;13.382;2023-05-10T02:00:20;82292.16;;;11.87
73662;BMP280;61956;52.540;13.382;2023-05-10T02:02:52;82513.03;;;11.86
73662;BMP280;61956;52.540;13.382;2023-05-10T02:05:29;81952.78;;;11.80
73662;BMP280;61956;52.540;13.382;2023-05-10T02:08:01;81658.59;;;11.76
73662;BMP280;61956;52.540;13.382;2023-05-10T02:10:37;81583.78;;;11.74
73662;BMP280;61956;52.540;13.382;2023-05-10T02:13:08;81846.56;;;11.71
73662;BMP280;61956;52.540;13.382;2023-05-10T02:15:40;81796.97;;;11.69
73662;BMP280;61956;52.540;13.382;2023-05-10T02:18:12;81880.91;;;11.68
73662;BMP280;61956;52.540;13.382;2023-05-10T02:20:47;81649.31;;;11.64
73662;BMP280;61956;52.540;13.382;2023-05-10T02:23:20;82001.03;;;11.65
73662;BMP280;61956;52.540;13.382;2023-05-10T02:25:51;81495.31;;;11.58
73662;BMP280;61956;52.540;13.382;2023-05-10T02:28:24;81805.06;;;11.58
73662;BMP280;61956;52.540;13.382;2023-05-10T02:30:55;81409.06;;;11.53
73662;BMP280;61956;52.540;13.382;2023-05-10T02:33:26;81885.84;;;11.55
73662;BMP280;61956;52.540;13.382;2023-05-10T02:35:59;81858.13;;;11.53
73662;BMP280;61956;52.540;13.382;2023-05-10T02:38:31;81609.19;;;11.50
73662;BMP280;61956;52.540;13.382;2023-05-10T02:41:04;80793.59;;;11.42
73662;BMP280;61956;52.540;13.382;2023-05-10T02:43:35;81151.53;;;11.41
73662;BMP280;61956;52.540;13.382;2023-05-10T02:46:08;81059.47;;;11.37
73662;BMP280;61956;52.540;13.382;2023-05-10T02:48:37;80989.28;;;11.35
73662;BMP280;61956;52.540;13.382;2023-05-10T02:51:12;81822.47;;;11.39
73662;BMP280;61956;52.540;13.382;2023-05-10T02:53:46;82025.63;;;11.41
73662;BMP280;61956;52.540;13.382;2023-05-10T02:56:23;81727.69;;;11.37
73662;BMP280;61956;52.540;13.382;2023-05-10T02:58:56;82035.41;;;11.38
73662;BMP280;61956;52.540;13.382;2023-05-10T03:01:27;81459.59;;;11.31
73662;BMP280;61956;52.540;13.382;2023-05-10T03:03:58;81734.91;;;11.33
73662;BMP280;61956;52.540;13.382;2023-05-10T03:06:29;82070.34;;;11.33
73662;BMP280;61956;52.540;13.382;2023-05-10T03:09:03;80684.31;;;11.22
73662;BMP280;61956;52.540;13.382;2023-05-10T03:11:43;81554.63;;;11.25
73662;BMP280;61956;52.540;13.382;2023-05-10T03:14:34;81030.59;;;11.20
73662;BMP280;61956;52.540;13.382;2023-05-10T03:17:18;81103.53;;;11.19
73662;BMP280;61956;52.540;13.382;2023-05-10T03:19:55;81021.81;;;11.15
73662;BMP280;61956;52.540;13.382;2023-05-10T03:22:32;80805.41;;;11.11
73662;BMP280;61956;52.540;13.382;2023-05-10T03:25:08;81259.78;;;11.13
73662;BMP280;61956;52.540;13.382;2023-05-10T03:27:41;80812.59;;;11.08
73662;BMP280;61956;52.540;13.382;2023-05-10T03:30:13;81323.75;;;11.09
73662;BMP280;61956;52.540;13.382;2023-05-10T03:32:43;80732.88;;;11.04
73662;BMP280;61956;52.540;13.382;2023-05-10T03:35:14;80899.84;;;11.04
73662;BMP280;61956;52.540;13.382;2023-05-10T03:37:49;81383.84;;;11.05
73662;BMP280;61956;52.540;13.382;2023-05-10T03:40:18;81485.75;;;11.04
73662;BMP280;61956;52.540;13.382;2023-05-10T03:42:49;81909.88;;;11.07
73662;BMP280;61956;52.540;13.382;2023-05-10T03:45:18;82087.84;;;11.07
73662;BMP280;61956;52.540;13.382;2023-05-10T03:47:47;82010.47;;;11.07
73662;BMP280;61956;52.540;13.382;2023-05-10T03:50:17;82275.47;;;11.09
73662;BMP280;61956;52.540;13.382;2023-05-10T03:52:50;82246.44;;;11.08
73662;BMP280;61956;52.540;13.382;2023-05-10T03:55:19;82764.28;;;11.12
73662;BMP280;61956;52.540;13.382;2023-05-10T03:57:49;82436.09;;;11.07
73662;BMP280;61956;52.540;13.382;2023-05-10T04:00:21;82645.00;;;11.09
73662;BMP280;61956;52.540;13.382;2023-05-10T04:02:53;83338.41;;;11.15
73662;BMP280;61956;52.540;13.382;2023-05-10T04:05:22;83436.47;;;11.15
73662;BMP280;61956;52.540;13.382;2023-05-10T04:07:55;83321.66;;;11.14
73662;BMP280;61956;52.540;13.382;2023-05-10T04:10:24;83477.75;;;11.15
73662;BMP280;61956;52.540;13.382;2023-05-10T04:12:55;83481.00;;;11.16
73662;BMP280;61956;52.540;13.382;2023-05-10T04:15:24;83854.59;;;11.17
73662;BMP280;61956;52.540;13.382;2023-05-10T04:17:53;83925.56;;;11.18
73662;BMP280;61956;52.540;13.382;2023-05-10T04:20:22;83954.63;;;11.19
73662;BMP280;61956;52.540;13.382;2023-05-10T04:22:51;84469.09;;;11.23
73662;BMP280;61956;52.540;13.382;2023-05-10T04:25:24;84616.94;;;11.24
73662;BMP280;61956;52.540;13.382;2023-05-10T04:27:53;84479.41;;;11.23
73662;BMP280;61956;52.540;13.382;2023-05-10T04:30:22;84982.44;;;11.29
73662;BMP280;61956;52.540;13.382;2023-05-10T04:32:54;85152.91;;;11.29
73662;BMP280;61956;52.540;13.382;2023-05-10T04:35:24;85582.50;;;11.33
73662;BMP280;61956;52.540;13.382;2023-05-10T04:37:55;85543.13;;;11.35
73662;BMP280;61956;52.540;13.382;2023-05-10T04:40:25;86158.91;;;11.40
73662;BMP280;61956;52.540;13.382;2023-05-10T04:42:55;86910.13;;;11.47
73662;BMP280;61956;52.540;13.382;2023-05-10T04:45:24;87088.03;;;11.50
73662;BMP280;61956;52.540;13.382;2023-05-10T04:47:53;87527.31;;;11.56
73662;BMP280;61956;52.540;13.382;2023-05-10T04:50:22;87485.34;;;11.57
73662;BMP280;61956;52.540;13.382;2023-05-10T04:52:51;87504.25;;;11.60
73662;BMP280;61956;52.540;13.382;2023-05-10T04:55:23;88825.13;;;11.71
73662;BMP280;61956;52.540;13.382;2023-05-10T04:57:52;89329.16;;;11.78
73662;BMP280;61956;52.540;13.382;2023-05-10T05:00:23;89205.78;;;11.80
73662;BMP280;61956;52.540;13.382;2023-05-10T05:02:52;90162.69;;;11.89
73662;BMP280;61956;52.540;13.382;2023-05-10T05:05:21;90631.00;;;11.96
73662;BMP280;61956;52.540;13.382;2023-05-10T05:07:52;90433.84;;;12.00
73662;BMP280;61956;52.540;13.382;2023-05-10T05:10:23;90633.78;;;12.04
73662;BMP280;61956;52.540;13.382;2023-05-10T05:12:52;91052.38;;;12.10
73662;BMP280;61956;52.540;13.382;2023-05-10T05:15:22;91911.66;;;12.21
73662;BMP280;61956;52.540;13.382;2023-05-10T05:17:51;92363.94;;;12.29
73662;BMP280;61956;52.540;13.382;2023-05-10T05:20:20;92912.00;;;12.39
73662;BMP280;61956;52.540;13.382;2023-05-10T05:22:49;92488.66;;;12.40
73662;BMP280;61956;52.540;13.382;2023-05-10T05:25:18;92543.72;;;12.44
73662;BMP280;61956;52.540;13.382;2023-05-10T05:27:50;92949.31;;;12.50
73662;BMP280;61956;52.540;13.382;2023-05-10T05:30:19;93180.50;;;12.56
73662;BMP280;61956;52.540;13.382;2023-05-10T05:32:48;93714.59;;;12.65
73662;BMP280;61956;52.540;13.382;2023-05-10T05:35:18;93883.19;;;12.72
73662;BMP280;61956;52.540;13.382;2023-05-10T05:37:47;94672.59;;;12.82
73662;BMP280;61956;52.540;13.382;2023-05-10T05:40:16;95665.63;;;12.95
73662;BMP280;61956;52.540;13.382;2023-05-10T05:42:46;94763.78;;;12.95
73662;BMP280;61956;52.540;13.382;2023-05-10T05:45:18;95361.13;;;13.04
73662;BMP280;61956;52.540;13.382;2023-05-10T05:47:47;96062.38;;;13.14
73662;BMP280;61956;52.540;13.382;2023-05-10T05:50:16;95956.19;;;13.20
73662;BMP280;61956;52.540;13.382;2023-05-10T05:52:46;96132.34;;;13.26
73662;BMP280;61956;52.540;13.382;2023-05-10T05:55:15;96162.56;;;13.35
73662;BMP280;61956;52.540;13.382;2023-05-10T05:57:44;96655.53;;;13.44
73662;BMP280;61956;52.540;13.382;2023-05-10T06:00:14;96899.53;;;13.51
73662;BMP280;61956;52.540;13.382;2023-05-10T06:02:48;97652.63;;;13.64
73662;BMP280;61956;52.540;13.382;2023-05-10T06:05:17;97868.44;;;13.74
73662;BMP280;61956;52.540;13.382;2023-05-10T06:07:46;97777.06;;;13.79
73662;BMP280;61956;52.540;13.382;2023-05-10T06:10:16;98199.50;;;13.90
73662;BMP280;61956;52.540;13.382;2023-05-10T06:12:45;98172.97;;;13.96
73662;BMP280;61956;52.540;13.382;2023-05-10T06:15:14;99517.91;;;14.15
73662;BMP280;61956;52.540;13.382;2023-05-10T06:17:43;105964.13;;;14.76
73662;BMP280;61956;52.540;13.382;2023-05-10T06:20:17;103844.03;;;14.92
73662;BMP280;61956;52.540;13.382;2023-05-10T06:22:46;106579.50;;;15.41
73662;BMP280;61956;52.540;13.382;2023-05-10T06:25:16;113697.31;;;16.33
73662;BMP280;61956;52.540;13.382;2023-05-10T06:27:46;118553.19;;;17.96
73662;BMP280;61956;52.540;13.382;2023-05-10T06:30:15;109124.91;;;17.97
73662;BMP280;61956;52.540;13.382;2023-05-10T06:32:44;100629.69;;;17.15
73662;BMP280;61956;52.540;13.382;2023-05-10T06:35:13;97181.72;;;16.64
73662;BMP280;61956;52.540;13.382;2023-05-10T06:37:45;96286.78;;;16.37
73662;BMP280;61956;52.540;13.382;2023-05-10T06:40:15;100295.91;;;16.58
73662;BMP280;61956;52.540;13.382;2023-05-10T06:42:45;98922.31;;;16.53
73662;BMP280;61956;52.540;13.382;2023-05-10T06:45:15;101175.69;;;16.65
73662;BMP280;61956;52.540;13.382;2023-05-10T06:47:44;104111.53;;;16.99
73662;BMP280;61956;52.540;13.382;2023-05-10T06:50:14;97629.63;;;16.53
73662;BMP280;61956;52.540;13.382;2023-05-10T06:52:45;95995.50;;;16.30
73662;BMP280;61956;52.540;13.382;2023-05-10T06:55:15;96787.53;;;16.27
73662;BMP280;61956;52.540;13.382;2023-05-10T06:57:44;99007.00;;;16.49
73662;BMP280;61956;52.540;13.382;2023-05-10T07:00:14;107440.75;;;17.34
73662;BMP280;61956;52.540;13.382;2023-05-10T07:02:44;110702.38;;;18.63
73662;BMP280;61956;52.540;13.382;2023-05-10T07:05:13;108673.63;;;18.94
73662;BMP280;61956;52.540;13.382;2023-05-10T07:07:45;115115.13;;;20.31
73662;BMP280;61956;52.540;13.382;2023-05-10T07:10:14;112249.97;;;20.89
73662;BMP280;61956;52.540;13.382;2023-05-10T07:12:44;112893.06;;;21.74
73662;BMP280;61956;52.540;13.382;2023-05-10T07:15:13;103457.69;;;20.89
73662;BMP280;61956;52.540;13.382;2023-05-10T07:17:42;105267.47;;;20.60
73662;BMP280;61956;52.540;13.382;2023-05-10T07:20:12;103739.13;;;20.78
73662;BMP280;61956;52.540;13.382;2023-05-10T07:22:41;103606.91;;;20.80
73662;BMP280;61956;52.540;13.382;2023-05-10T07:25:13;102358.03;;;20.52
73662;BMP280;61956;52.540;13.382;2023-05-10T07:27:42;104905.50;;;20.90
73662;BMP280;61956;52.540;13.382;2023-05-10T07:30:14;100225.47;;;20.39
73662;BMP280;61956;52.540;13.382;2023-05-10T07:32:43;98465.53;;;19.91
73662;BMP280;61956;52.540;13.382;2023-05-10T07:35:12;104425.75;;;20.57
73662;BMP280;61956;52.540;13.382;2023-05-10T07:37:41;111699.09;;;22.08
73662;BMP280;61956;52.540;13.382;2023-05-10T07:40:13;112250.53;;;23.42
73662;BMP280;61956;52.540;13.382;2023-05-10T07:42:42;110322.94;;;23.88
73662;BMP280;61956;52.540;13.382;2023-05-10T07:45:11;108542.38;;;23.96
73662;BMP280;61956;52.540;13.382;2023-05-10T07:47:41;109284.97;;;24.51
73662;BMP280;61956;52.540;13.382;2023-05-10T07:50:10;107746.66;;;24.70
73662;BMP280;61956;52.540;13.382;2023-05-10T07:52:40;107105.63;;;24.86
73662;BMP280;61956;52.540;13.382;2023-05-10T07:55:09;106152.00;;;24.63
73662;BMP280;61956;52.540;13.382;2023-05-10T07:57:42;106607.66;;;24.84
73662;BMP280;61956;52.540;13.382;2023-05-10T08:00:13;107283.47;;;25.05
73662;BMP280;61956;52.540;13.382;2023-05-10T08:02:46;105510.25;;;25.04
73662;BMP280;61956;52.540;13.382;2023-05-10T08:05:15;105286.13;;;24.97
73662;BMP280;61956;52.540;13.382;2023-05-10T08:07:45;105210.44;;;25.00
73662;BMP280;61956;52.540;13.382;2023-05-10T08:10:14;106124.59;;;25.11
73662;BMP280;61956;52.540;13.382;2023-05-10T08:12:46;104913.50;;;25.12
73662;BMP280;61956;52.540;13.382;2023-05-10T08:15:15;105996.31;;;25.35
73662;BMP280;61956;52.540;13.382;2023-05-10T08:17:44;105918.28;;;25.48
73662;BMP280;61956;52.540;13.382;2023-05-10T08:20:13;103590.44;;;25.17
73662;BMP280;61956;52.540;13.382;2023-05-10T08:22:45;104208.72;;;25.13
73662;BMP280;61956;52.540;13.382;2023-05-10T08:25:14;104846.91;;;25.30
73662;BMP280;61956;52.540;13.382;2023-05-10T08:27:46;102404.72;;;24.83
73662;BMP280;61956;52.540;13.382;2023-05-10T08:30:15;104416.38;;;25.00
73662;BMP280;61956;52.540;13.382;2023-05-10T08:32:44;103668.22;;;24.93
73662;BMP280;61956;52.540;13.382;2023-05-10T08:35:15;104839.97;;;25.17
73662;BMP280;61956;52.540;13.382;2023-05-10T08:37:44;103044.66;;;25.03
73662;BMP280;61956;52.540;13.382;2023-05-10T08:40:14;103494.22;;;25.00
73662;BMP280;61956;52.540;13.382;2023-05-10T08:42:51;104507.59;;;25.17
73662;BMP280;61956;52.540;13.382;2023-05-10T08:45:24;101658.50;;;24.88
73662;BMP280;61956;52.540;13.382;2023-05-10T08:47:59;93043.78;;;22.70
73662;BMP280;61956;52.540;13.382;2023-05-10T08:50:31;91646.53;;;21.59
73662;BMP280;61956;52.540;13.382;2023-05-10T08:53:05;92068.44;;;21.04
73662;BMP280;61956;52.540;13.382;2023-05-10T08:55:35;92192.00;;;20.70
73662;BMP280;61956;52.540;13.382;2023-05-10T08:58:08;93380.41;;;20.59
73662;BMP280;61956;52.540;13.382;2023-05-10T09:00:38;93894.56;;;20.55
73662;BMP280;61956;52.540;13.382;2023-05-10T09:03:12;94550.19;;;20.46
73662;BMP280;61956;52.540;13.382;2023-05-10T09:05:42;94974.94;;;20.41
73662;BMP280;61956;52.540;13.382;2023-05-10T09:08:11;94879.84;;;20.34
73662;BMP280;61956;52.540;13.382;2023-05-10T09:10:43;95783.75;;;20.37
73662;BMP280;61956;52.540;13.382;2023-05-10T09:13:17;96349.66;;;20.42
73662;BMP280;61956;52.540;13.382;2023-05-10T09:15:48;97556.22;;;20.59
73662;BMP280;61956;52.540;13.382;2023-05-10T09:18:17;97474.22;;;20.61
73662;BMP280;61956;52.540;13.382;2023-05-10T09:20:48;97499.41;;;20.58
73662;BMP280;61956;52.540;13.382;2023-05-10T09:23:17;98099.16;;;20.68
73662;BMP280;61956;52.540;13.382;2023-05-10T09:25:47;97404.25;;;20.63
73662;BMP280;61956;52.540;13.382;2023-05-10T09:28:18;97994.22;;;20.70
73662;BMP280;61956;52.540;13.382;2023-05-10T09:30:53;98075.47;;;20.72
73662;BMP280;61956;52.540;13.382;2023-05-10T09:33:22;98745.97;;;20.82
73662;BMP280;61956;52.540;13.382;2023-05-10T09:35:52;98882.31;;;20.85
73662;BMP280;61956;52.540;13.382;2023-05-10T09:38:21;98925.00;;;20.90
73662;BMP280;61956;52.540;13.382;2023-05-10T09:40:52;98845.97;;;20.94
73662;BMP280;61956;52.540;13.382;2023-05-10T09:43:26;99142.38;;;20.96
73662;BMP280;61956;52.540;13.382;2023-05-10T09:45:56;99076.47;;;20.96
73662;BMP280;61956;52.540;13.382;2023-05-10T09:48:25;99215.56;;;20.99
73662;BMP280;61956;52.540;13.382;2023-05-10T09:50:57;99678.72;;;21.08
73662;BMP280;61956;52.540;13.382;2023-05-10T09:53:27;99881.56;;;21.13
73662;BMP280;61956;52.540;13.382;2023-05-10T09:55:56;100270.84;;;21.22
73662;BMP280;61956;52.540;13.382;2023-05-10T09:58:28;99599.84;;;21.15
73662;BMP280;61956;52.540;13.382;2023-05-10T10:00:57;100319.59;;;21.25
73662;BMP280;61956;52.540;13.382;2023-05-10T10:03:27;100124.16;;;21.30
73662;BMP280;61956;52.540;13.382;2023-05-10T10:05:57;100170.72;;;21.35
73662;BMP280;61956;52.540;13.382;2023-05-10T10:08:27;100761.59;;;21.45
73662;BMP280;61956;52.540;13.382;2023-05-10T10:10:56;100397.66;;;21.43
73662;BMP280;61956;52.540;13.382;2023-05-10T10:13:29;100033.97;;;21.37
73662;BMP280;61956;52.540;13.382;2023-05-10T10:15:58;100255.00;;;21.40
73662;BMP280;61956;52.540;13.382;2023-05-10T10:18:28;100499.19;;;21.46
73662;BMP280;61956;52.540;13.382;2023-05-10T10:20:59;100848.94;;;21.57
73662;BMP280;61956;52.540;13.382;2023-05-10T10:23:29;100576.50;;;21.55
73662;BMP280;61956;52.540;13.382;2023-05-10T10:25:58;100778.44;;;21.57
73662;BMP280;61956;52.540;13.382;2023-05-10T10:28:39;101376.28;;;21.70
73662;BMP280;61956;52.540;13.382;2023-05-10T10:31:23;100923.56;;;21.71
73662;BMP280;61956;52.540;13.382;2023-05-10T10:34:05;101050.84;;;21.73
73662;BMP280;61956;52.540;13.382;2023-05-10T10:36:40;100922.69;;;21.76
73662;BMP280;61956;52.540;13.382;2023-05-10T10:39:12;100944.88;;;21.75
73662;BMP280;61956;52.540;13.382;2023-05-10T10:41:49;101118.63;;;21.78
73662;BMP280;61956;52.540;13.382;2023-05-10T10:44:33;101441.50;;;21.89
73662;BMP280;61956;52.540;13.382;2023-05-10T10:47:23;101523.03;;;21.95
73662;BMP280;61956;52.540;13.382;2023-05-10T10:50:06;101767.91;;;22.05
73662;BMP280;61956;52.540;13.382;2023-05-10T10:52:39;101644.72;;;22.04
73662;BMP280;61956;52.540;13.382;2023-05-10T10:55:10;101630.16;;;22.06
73662;BMP280;61956;52.540;13.382;2023-05-10T10:57:48;101641.47;;;22.12
73662;BMP280;61956;52.540;13.382;2023-05-10T11:00:25;101945.41;;;22.17
73662;BMP280;61956;52.540;13.382;2023-05-10T11:02:58;101739.69;;;22.19
73662;BMP280;61956;52.540;13.382;2023-05-10T11:05:42;100832.84;;;22.07
73662;BMP280;61956;52.540;13.382;2023-05-10T11:08:13;101194.06;;;22.06
73662;BMP280;61956;52.540;13.382;2023-05-10T11:11:02;101112.97;;;22.07
73662;BMP280;61956;52.540;13.382;2023-05-10T11:13:34;101270.72;;;22.06
73662;BMP280;61956;52.540;13.382;2023-05-10T11:16:15;101888.53;;;22.20
73662;BMP280;61956;52.540;13.382;2023-05-10T11:19:00;102085.66;;;22.31
73662;BMP280;61956;52.540;13.382;2023-05-10T11:21:31;102515.16;;;22.40
73662;BMP280;61956;52.540;13.382;2023-05-10T11:24:02;102375.19;;;22.44
73662;BMP280;61956;52.540;13.382;2023-05-10T11:26:41;102534.19;;;22.52
73662;BMP280;61956;52.540;13.382;2023-05-10T11:29:12;103104.47;;;22.65
73662;BMP280;61956;52.540;13.382;2023-05-10T11:31:45;103010.31;;;22.74
73662;BMP280;61956;52.540;13.382;2023-05-10T11:34:26;103061.72;;;22.83
73662;BMP280;61956;52.540;13.382;2023-05-10T11:36:59;102510.03;;;22.74
73662;BMP280;61956;52.540;13.382;2023-05-10T11:39:30;102528.31;;;22.76
73662;BMP280;61956;52.540;13.382;2023-05-10T11:42:00;102629.91;;;22.80
73662;BMP280;61956;52.540;13.382;2023-05-10T11:44:29;102457.63;;;22.76
73662;BMP280;61956;52.540;13.382;2023-05-10T11:47:02;102318.91;;;22.77
73662;BMP280;61956;52.540;13.382;2023-05-10T11:49:31;102418.47;;;22.78
73662;BMP280;61956;52.540;13.382;2023-05-10T11:52:04;103104.38;;;22.92
73662;BMP280;61956;52.540;13.382;2023-05-10T11:54:35;102887.53;;;22.95
73662;BMP280;61956;52.540;13.382;2023-05-10T11:57:04;102987.63;;;22.99
73662;BMP280;61956;52.540;13.382;2023-05-10T11:59:33;102992.94;;;23.04
73662;BMP280;61956;52.540;13.382;2023-05-10T12:02:05;103195.31;;;23.08
73662;BMP280;61956;52.540;13.382;2023-05-10T12:04:34;103699.88;;;23.22
73662;BMP280;61956;52.540;13.382;2023-05-10T12:07:04;103849.22;;;23.33
73662;BMP280;61956;52.540;13.382;2023-05-10T12:09:34;102833.50;;;23.22
73662;BMP280;61956;52.540;13.382;2023-05-10T12:12:03;102691.78;;;23.14
73662;BMP280;61956;52.540;13.382;2023-05-10T12:14:34;103293.19;;;23.25
73662;BMP280;61956;52.540;13.382;2023-05-10T12:17:06;102775.47;;;23.26
73662;BMP280;61956;52.540;13.382;2023-05-10T12:19:41;103569.66;;;23.35
73662;BMP280;61956;52.540;13.382;2023-05-10T12:22:10;104215.41;;;23.53
73662;BMP280;61956;52.540;13.382;2023-05-10T12:24:39;103291.19;;;23.47
73662;BMP280;61956;52.540;13.382;2023-05-10T12:27:08;102354.03;;;23.27
73662;BMP280;61956;52.540;13.382;2023-05-10T12:29:41;102194.66;;;23.20
73662;BMP280;61956;52.540;13.382;2023-05-10T12:32:15;102592.97;;;23.24
73662;BMP280;61956;52.540;13.382;2023-05-10T12:34:46;102891.25;;;23.30
73662;BMP280;61956;52.540;13.382;2023-05-10T12:37:16;102809.66;;;23.27
73662;BMP280;61956;52.540;13.382;2023-05-10T12:39:45;103312.88;;;23.39
73662;BMP280;61956;52.540;13.382;2023-05-10T12:42:14;104424.31;;;23.63
73662;BMP280;61956;52.540;13.382;2023-05-10T12:44:45;102895.22;;;23.48
73662;BMP280;61956;52.540;13.382;2023-05-10T12:47:17;103783.78;;;23.55
73662;BMP280;61956;52.540;13.382;2023-05-10T12:49:46;103714.97;;;23.65
73662;BMP280;61956;52.540;13.382;2023-05-10T12:52:16;103693.53;;;23.67
73662;BMP280;61956;52.540;13.382;2023-05-10T12:54:46;103805.75;;;23.72
73662;BMP280;61956;52.540;13.382;2023-05-10T12:57:15;103190.53;;;23.67
73662;BMP280;61956;52.540;13.382;2023-05-10T12:59:45;103022.97;;;23.65
73662;BMP280;61956;52.540;13.382;2023-05-10T13:02:17;103189.47;;;23.68
73662;BMP280;61956;52.540;13.382;2023-05-10T13:04:47;103219.97;;;23.66
73662;BMP280;61956;52.540;13.382;2023-05-10T13:07:16;102652.13;;;23.59
73662;BMP280;61956;52.540;13.382;2023-05-10T13:09:45;103171.44;;;23.65
73662;BMP280;61956;52.540;13.382;2023-05-10T13:12:15;103555.47;;;23.78
73662;BMP280;61956;52.540;13.382;2023-05-10T13:14:44;103584.38;;;23.80
73662;BMP280;61956;52.540;13.382;2023-05-10T13:17:13;102812.72;;;23.70
73662;BMP280;61956;52.540;13.382;2023-05-10T13:19:45;102897.84;;;23.68
73662;BMP280;61956;52.540;13.382;2023-05-10T13:22:14;102758.16;;;23.64
73662;BMP280;61956;52.540;13.382;2023-05-10T13:24:45;104296.00;;;23.92
73662;BMP280;61956;52.540;13.382;2023-05-10T13:27:15;104421.63;;;24.10
73662;BMP280;61956;52.540;13.382;2023-05-10T13:29:44;103552.72;;;24.00
73662;BMP280;61956;52.540;13.382;2023-05-10T13:32:13;103021.13;;;23.91
73662;BMP280;61956;52.540;13.382;2023-05-10T13:34:45;103699.66;;;23.94
73662;BMP280;61956;52.540;13.382;2023-05-10T13:37:14;103525.66;;;23.98
73662;BMP280;61956;52.540;13.382;2023-05-10T13:39:47;103644.75;;;24.00
73662;BMP280;61956;52.540;13.382;2023-05-10T13:42:17;102303.72;;;23.75
73662;BMP280;61956;52.540;13.382;2023-05-10T13:44:46;103549.72;;;23.92
73662;BMP280;61956;52.540;13.382;2023-05-10T13:47:15;102894.34;;;23.88
73662;BMP280;61956;52.540;13.382;2023-05-10T13:49:47;104101.22;;;24.05
73662;BMP280;61956;52.540;13.382;2023-05-10T13:52:16;104151.06;;;24.20
73662;BMP280;61956;52.540;13.382;2023-05-10T13:54:45;103537.94;;;24.15
73662;BMP280;61956;52.540;13.382;2023-05-10T13:57:14;104177.22;;;24.28
73662;BMP280;61956;52.540;13.382;2023-05-10T13:59:44;104086.19;;;24.27
73662;BMP280;61956;52.540;13.382;2023-05-10T14:02:13;104085.19;;;24.33
73662;BMP280;61956;52.540;13.382;2023-05-10T14:04:42;103350.63;;;24.19
73662;BMP280;61956;52.540;13.382;2023-05-10T14:07:15;102684.75;;;24.03
73662;BMP280;61956;52.540;13.382;2023-05-10T14:09:44;104044.47;;;24.28
73662;BMP280;61956;52.540;13.382;2023-05-10T14:12:13;103545.69;;;24.21
73662;BMP280;61956;52.540;13.382;2023-05-10T14:14:42;103745.31;;;24.23
73662;BMP280;61956;52.540;13.382;2023-05-10T14:17:11;103827.69;;;24.33
73662;BMP280;61956;52.540;13.382;2023-05-10T14:19:41;104312.31;;;24.41
73662;BMP280;61956;52.540;13.382;2023-05-10T14:22:10;104556.38;;;24.54